Ashville, New York
Current Conditions -  °F | °C
As of 3:55 PM on Thursday 23 Oct 2014 (Local Time) from KJHW Reporting Station
Clear Clear  
Wind Chill: 54°   Ceiling: Unl
Heat Index: 54°   Visibility: 10mi
Dew Point: 37°   Wind: 15mph
Humidity: 54%   Direction: 330°NNW
Pressure: 30.07"   Gusts: 20mph
Location:  42.1°N, 79.38°W
Report Text: KJHW 231955Z AUTO 33013G17KT 10SM CLR 12/03 A3007 RMK AO1
Loading
Personal Weather Stations






























Interactive Weather Map
Tropical Storm Tracking
New forecast layout! Learn more

10-Day Weather Forecast

Advertisements
Track Severe Weather on mobile